Terminal Aerodrome Forecast
Issued by NWS Omaha/Valley, NE

Home | Current Version | Previous Version | Graphics & Text | Print | Product List | Glossary On
Versions: 1 2 3 4 5 6 7 8 9 10 11 12 13 14 15 16 17 18 19 20 21 22 23 24 25 26 27 28 29 30 31 32 33 34 35 36 37 38 39
000
FTUS43 KOAX 011128
TAFOFK
TAF
KOFK 011128Z 0112/0212 35024G35KT 1 1/2SM -SN BLSN OVC012
      TEMPO 0114/0118 3/4SM -SN BLSN VV008
     FM012000 35020G30KT 4SM -SN OVC025
     FM020200 33015KT P6SM SCT120=

USA.gov is the U.S. government's official web portal to all federal, state and local government web resources and services.